Time;durP1;ratioP1;P1;durP2;ratioP2;P2;SDS_P1;SDS_P2;PMS_P1;PMS_P2;Temp;Humidity;BMP_temperature;BMP_pressure;BME280_temperature;BME280_humidity;BME280_pressure;Samples;Min_cycle;Max_cycle;Signal;HPM_P1;HPM_P2
2024/02/07 00:04:28;;;;;;;157.65;148.13;;;9.50;99.90;;;;;;12595493;28;20045;-86
2024/02/07 00:10:30;;;;;;;163.13;152.85;;;9.60;99.90;;;;;;12598616;28;20041;-87
2024/02/07 00:16:32;;;;;;;150.13;140.93;;;9.50;99.90;;;;;;12616712;28;20148;-85
2024/02/07 00:22:34;;;;;;;174.35;163.35;;;9.60;99.90;;;;;;12594857;28;20086;-84
2024/02/07 00:28:36;;;;;;;239.80;225.70;;;9.70;99.90;;;;;;12620688;28;20052;-87
2024/02/07 00:34:38;;;;;;;758.92;707.22;;;9.10;99.90;;;;;;12640835;28;20048;-88
2024/02/07 00:40:40;;;;;;;780.00;727.35;;;7.70;99.90;;;;;;12628000;28;20035;-86
2024/02/07 00:46:43;;;;;;;739.13;689.50;;;7.20;99.90;;;;;;12650746;28;20052;-86
2024/02/07 00:52:45;;;;;;;634.03;592.22;;;6.80;99.90;;;;;;12625072;28;20074;-85
2024/02/07 00:58:47;;;;;;;622.28;581.72;;;6.10;99.90;;;;;;12621003;28;20123;-85
2024/02/07 01:04:51;;;;;;;568.17;531.38;;;5.60;99.90;;;;;;12648685;28;20037;-86
2024/02/07 01:11:03;;;;;;;528.97;494.65;;;5.30;99.90;;;;;;12577704;22;20408;-35
2024/02/07 01:17:21;;;;;;;493.15;460.80;;;5.00;99.90;;;;;;12565300;28;20076;-35
2024/02/07 01:23:46;;;;;;;510.73;477.75;;;5.10;99.90;;;;;;12579853;28;20045;-34
2024/02/07 01:30:11;;;;;;;503.38;470.98;;;5.00;99.90;;;;;;12571598;28;20056;-36
2024/02/07 01:36:28;;;;;;;472.70;442.25;;;5.00;99.90;;;;;;12583507;28;20052;-35
2024/02/07 01:42:47;;;;;;;464.88;435.17;;;5.00;99.90;;;;;;12586319;28;20053;-35
2024/02/07 01:49:04;;;;;;;440.23;411.70;;;4.90;99.90;;;;;;12580804;28;20056;-35
2024/02/07 01:55:22;;;;;;;396.83;370.92;;;4.90;99.90;;;;;;12565747;28;20055;-35
2024/02/07 02:01:38;;;;;;;340.38;317.67;;;5.00;99.90;;;;;;12579884;28;20056;-35
2024/02/07 02:07:56;;;;;;;312.95;292.77;;;4.90;99.90;;;;;;12575197;28;20100;-35
2024/02/07 02:14:14;;;;;;;300.83;281.08;;;4.70;99.90;;;;;;12584503;28;20048;-34
2024/02/07 02:20:30;;;;;;;291.95;273.15;;;4.70;99.90;;;;;;12574557;28;20053;-35
2024/02/07 02:27:12;;;;;;;307.38;287.40;;;4.70;99.90;;;;;;12583878;28;20048;-35
2024/02/07 02:33:38;;;;;;;306.33;285.90;;;4.70;99.90;;;;;;12574299;28;20139;-35
2024/02/07 02:39:56;;;;;;;288.05;269.23;;;4.70;99.90;;;;;;12587680;28;20083;-36
2024/02/07 02:46:13;;;;;;;267.92;250.48;;;4.70;99.90;;;;;;12588057;28;20048;-34
2024/02/07 02:52:31;;;;;;;242.60;226.52;;;4.80;99.90;;;;;;12573597;28;20064;-35
2024/02/07 02:58:48;;;;;;;251.35;235.07;;;4.80;99.90;;;;;;12587131;28;20052;-36
2024/02/07 03:05:13;;;;;;;215.80;201.40;;;4.60;99.90;;;;;;12583183;28;20045;-36
2024/02/07 03:11:31;;;;;;;221.35;206.70;;;4.50;99.90;;;;;;12542280;28;20057;-34
2024/02/07 03:17:48;;;;;;;191.20;177.60;;;4.20;99.90;;;;;;12533877;28;20560;-35
2024/02/07 03:24:04;;;;;;;191.65;178.82;;;4.10;99.90;;;;;;12515953;28;20053;-35
2024/02/07 03:30:21;;;;;;;191.15;178.32;;;4.10;99.90;;;;;;12532417;28;20183;-35
2024/02/07 03:36:38;;;;;;;186.00;173.50;;;4.00;99.90;;;;;;12538045;28;20060;-35
2024/02/07 03:42:53;;;;;;;175.10;163.10;;;4.00;99.90;;;;;;12539903;28;20412;-35
2024/02/07 03:49:14;;;;;;;181.70;169.55;;;4.00;99.90;;;;;;12523478;28;20073;-34
2024/02/07 03:55:30;;;;;;;171.48;159.85;;;4.00;99.90;;;;;;12534317;28;20574;-35
2024/02/07 04:01:47;;;;;;;166.80;155.60;;;4.00;99.90;;;;;;12519979;28;20569;-35
2024/02/07 04:08:04;;;;;;;212.93;198.82;;;4.00;99.90;;;;;;12561609;28;20048;-35
2024/02/07 05:19:48;;;;;;;160.15;149.32;;;3.60;99.90;;;;;;12568871;28;20394;-34
2024/02/07 05:26:04;;;;;;;161.55;150.65;;;3.40;99.90;;;;;;12601003;28;20443;-35
2024/02/07 05:32:24;;;;;;;158.02;146.85;;;3.30;99.90;;;;;;12558691;28;20060;-35
2024/02/07 05:38:41;;;;;;;161.98;150.82;;;3.30;99.90;;;;;;12574048;28;20057;-35
2024/02/07 05:44:57;;;;;;;166.63;155.00;;;3.30;99.90;;;;;;12569780;28;20127;-35
2024/02/07 05:51:22;;;;;;;179.50;166.88;;;3.40;99.90;;;;;;12576274;28;20053;-35
2024/02/07 05:57:38;;;;;;;182.27;169.80;;;3.30;99.90;;;;;;12570759;28;20056;-35
2024/02/07 06:03:52;;;;;;;183.02;170.25;;;3.30;99.90;;;;;;12592946;28;20202;-34
2024/02/07 06:10:05;;;;;;;191.05;177.80;;;3.30;99.90;;;;;;12590876;28;20062;-35
2024/02/07 06:16:17;;;;;;;195.55;181.98;;;3.30;99.90;;;;;;12583937;28;20048;-35
2024/02/07 06:22:31;;;;;;;198.10;184.18;;;3.30;99.90;;;;;;12591032;28;20497;-35
2024/02/07 06:28:50;;;;;;;201.15;187.15;;;3.30;99.90;;;;;;12586394;28;20403;-35
2024/02/07 06:35:02;;;;;;;214.77;199.82;;;3.30;99.90;;;;;;12584229;28;20471;-35
2024/02/07 06:41:15;;;;;;;219.77;205.07;;;3.30;99.90;;;;;;12578375;28;20049;-35
2024/02/07 06:47:27;;;;;;;230.15;214.70;;;3.30;99.90;;;;;;12585481;28;20048;-35
2024/02/07 06:53:39;;;;;;;245.00;228.65;;;3.40;99.90;;;;;;12580408;28;20059;-35
2024/02/07 06:59:52;;;;;;;281.15;262.42;;;3.30;99.90;;;;;;12582977;28;20052;-35
2024/02/07 07:06:05;;;;;;;279.63;260.95;;;3.40;99.90;;;;;;12591718;28;20517;-36
2024/02/07 07:12:19;;;;;;;278.35;260.63;;;3.30;99.90;;;;;;12577932;28;20520;-35
2024/02/07 07:18:31;;;;;;;286.05;267.42;;;3.40;99.90;;;;;;12574091;28;20080;-34
2024/02/07 07:24:44;;;;;;;280.73;262.38;;;3.50;99.90;;;;;;12589577;28;20524;-35
2024/02/07 07:30:57;;;;;;;279.67;261.63;;;3.50;99.90;;;;;;12567234;28;20045;-35
2024/02/07 07:37:10;;;;;;;293.88;274.98;;;3.60;99.90;;;;;;12573700;28;20147;-35
2024/02/07 07:43:23;;;;;;;284.05;265.38;;;3.80;99.90;;;;;;12580510;28;20047;-35
2024/02/07 07:49:35;;;;;;;301.30;282.10;;;3.70;99.90;;;;;;12578263;28;20135;-35
2024/02/07 07:55:48;;;;;;;305.80;286.20;;;3.80;99.90;;;;;;12589652;28;20186;-35
2024/02/07 08:02:02;;;;;;;331.15;310.13;;;3.70;99.90;;;;;;12569384;28;20063;-34
2024/02/07 08:08:15;;;;;;;296.70;277.43;;;3.70;99.90;;;;;;12575225;28;20416;-35
2024/02/07 08:14:27;;;;;;;310.27;290.25;;;3.80;99.90;;;;;;12585279;28;20052;-35
2024/02/07 08:20:41;;;;;;;325.95;305.08;;;3.90;99.90;;;;;;12549229;28;20052;-35
2024/02/07 08:26:54;;;;;;;340.13;318.20;;;3.80;99.90;;;;;;12579150;28;20817;-35
2024/02/07 08:33:07;;;;;;;344.38;322.10;;;3.80;99.90;;;;;;12574656;28;20352;-35
2024/02/07 08:39:20;;;;;;;357.52;334.63;;;3.80;99.90;;;;;;12577272;28;20049;-35
2024/02/07 08:45:34;;;;;;;352.35;329.95;;;4.00;99.90;;;;;;12575060;28;20053;-35
2024/02/07 08:51:46;;;;;;;354.70;331.93;;;4.00;99.90;;;;;;12586265;28;20097;-35
2024/02/07 08:58:00;;;;;;;354.30;331.45;;;4.20;99.90;;;;;;12584800;28;20090;-34
2024/02/07 09:04:13;;;;;;;348.88;326.88;;;4.40;99.90;;;;;;12570931;28;20068;-35
2024/02/07 09:10:26;;;;;;;353.75;331.45;;;4.40;99.90;;;;;;12584096;28;20496;-35
2024/02/07 09:16:39;;;;;;;353.33;331.08;;;4.40;99.90;;;;;;12592445;28;20105;-35
2024/02/07 09:22:51;;;;;;;351.80;329.40;;;4.40;99.90;;;;;;12582823;28;20187;-35
2024/02/07 09:29:03;;;;;;;348.60;326.70;;;4.60;99.90;;;;;;12589584;28;20052;-35
2024/02/07 09:35:17;;;;;;;347.23;325.05;;;4.60;99.90;;;;;;12576464;28;20049;-35
2024/02/07 09:41:29;;;;;;;354.20;331.42;;;4.60;99.90;;;;;;12578761;28;20110;-35
2024/02/07 09:47:59;;;;;;;345.98;323.92;;;4.60;99.90;;;;;;12584252;28;20049;-35
2024/02/07 09:54:19;;;;;;;338.30;316.73;;;4.60;99.90;;;;;;12586292;28;20053;-35
2024/02/07 10:00:31;;;;;;;321.63;301.10;;;4.60;99.90;;;;;;12590150;28;20048;-35
2024/02/07 10:06:43;;;;;;;334.73;312.95;;;4.70;99.90;;;;;;12583475;28;20140;-35
2024/02/07 10:12:56;;;;;;;334.42;313.05;;;4.60;99.90;;;;;;12582649;28;20059;-36
2024/02/07 10:19:11;;;;;;;338.08;316.48;;;4.70;99.90;;;;;;12573515;28;20063;-35
2024/02/07 10:25:26;;;;;;;316.50;295.60;;;4.60;99.90;;;;;;12590583;28;20765;-35
2024/02/07 10:31:38;;;;;;;;;;;4.80;99.90;;;;;;12594557;28;20044;-35
2024/02/07 10:37:55;;;;;;;298.35;279.70;;;5.00;99.90;;;;;;12585546;28;20015;-35
2024/02/07 10:44:12;;;;;;;269.48;252.00;;;4.90;99.90;;;;;;12585189;28;20056;-35
2024/02/07 10:50:26;;;;;;;274.83;256.48;;;5.00;99.90;;;;;;12574188;28;20053;-35
2024/02/07 10:56:41;;;;;;;264.02;247.13;;;4.90;99.90;;;;;;12583218;28;20057;-35
2024/02/07 11:02:55;;;;;;;250.35;234.23;;;5.00;99.90;;;;;;12585019;28;20074;-36
2024/02/07 11:09:07;;;;;;;207.30;193.67;;;5.00;99.90;;;;;;12582083;28;20187;-36
2024/02/07 11:15:20;;;;;;;181.60;169.65;;;4.90;99.90;;;;;;12588130;28;20590;-35
2024/02/07 11:21:36;;;;;;;197.38;184.55;;;5.00;99.90;;;;;;12571046;28;20099;-35
2024/02/07 11:27:51;;;;;;;192.82;180.05;;;5.10;99.90;;;;;;12567132;28;20056;-35
2024/02/07 11:34:04;;;;;;;180.90;168.98;;;5.00;99.90;;;;;;12560660;28;20134;-35
2024/02/07 11:40:17;;;;;;;197.10;184.32;;;5.10;99.90;;;;;;12578174;28;20052;-35
2024/02/07 11:46:30;;;;;;;167.05;156.45;;;5.20;99.90;;;;;;12590162;28;20052;-35
2024/02/07 11:52:45;;;;;;;124.50;116.85;;;5.20;99.90;;;;;;12589573;28;20053;-34
2024/02/07 11:58:58;;;;;;;164.38;153.90;;;5.10;99.90;;;;;;12570893;28;20504;-35
2024/02/07 12:05:18;;;;;;;106.22;99.85;;;5.40;99.90;;;;;;12585406;28;20052;-35
2024/02/07 12:11:33;;;;;;;84.70;79.72;;;5.20;99.90;;;;;;12583878;28;20109;-36
2024/02/07 12:17:46;;;;;;;81.50;76.43;;;5.40;99.90;;;;;;12574184;28;20071;-35
2024/02/07 12:23:58;;;;;;;91.03;85.43;;;5.50;99.90;;;;;;12588551;28;20295;-35
2024/02/07 12:30:11;;;;;;;75.35;70.25;;;5.50;99.90;;;;;;12579411;28;20045;-35
2024/02/07 12:36:24;;;;;;;70.60;66.32;;;5.50;99.90;;;;;;12581913;28;20484;-35
2024/02/07 12:42:37;;;;;;;54.72;51.17;;;5.60;99.90;;;;;;12583824;28;20524;-35
2024/02/07 12:48:50;;;;;;;54.72;51.38;;;5.60;99.90;;;;;;12557654;28;20166;-35
2024/02/07 12:55:02;;;;;;;56.25;52.53;;;5.70;99.90;;;;;;12581516;28;20056;-36
2024/02/07 13:01:13;;;;;;;43.30;40.55;;;5.70;99.90;;;;;;12578657;28;20075;-35
2024/02/07 13:07:27;;;;;;;49.90;46.65;;;6.20;99.90;;;;;;12576589;28;20526;-36
2024/02/07 13:13:39;;;;;;;50.20;47.15;;;6.30;99.90;;;;;;12510357;28;20064;-35
2024/02/07 13:19:51;;;;;;;54.83;50.90;;;6.00;99.90;;;;;;12534592;28;20060;-35
2024/02/07 13:26:06;;;;;;;59.17;55.20;;;5.90;99.90;;;;;;12528098;28;20045;-35
2024/02/07 13:32:21;;;;;;;60.28;56.65;;;5.70;99.90;;;;;;12522010;28;20505;-36
2024/02/07 13:38:34;;;;;;;51.35;48.33;;;5.60;99.90;;;;;;12509738;28;20571;-35
2024/02/07 13:44:46;;;;;;;53.03;49.92;;;5.50;99.90;;;;;;12511657;28;20056;-35
2024/02/07 13:51:00;;;;;;;50.47;47.08;;;5.40;99.90;;;;;;12516732;28;20045;-35
2024/02/07 13:57:12;;;;;;;47.78;44.35;;;5.40;99.90;;;;;;12531452;28;20056;-35
2024/02/07 14:03:24;;;;;;;48.50;45.15;;;5.60;99.90;;;;;;12520038;28;20048;-35
2024/02/07 14:09:36;;;;;;;44.33;41.35;;;5.40;99.90;;;;;;12556116;28;20048;-35
2024/02/07 14:15:48;;;;;;;44.08;41.55;;;5.50;99.90;;;;;;12589064;28;20044;-36
2024/02/07 14:22:00;;;;;;;36.50;33.88;;;5.50;99.90;;;;;;12586970;28;20147;-35
2024/02/07 14:28:12;;;;;;;39.30;36.88;;;5.70;99.90;;;;;;12592877;28;20060;-35
2024/02/07 14:34:25;;;;;;;32.42;30.23;;;5.60;99.90;;;;;;12583056;28;20051;-35
2024/02/07 14:40:37;;;;;;;39.97;37.45;;;5.60;99.90;;;;;;12577537;28;20560;-34
2024/02/07 14:46:50;;;;;;;38.03;35.58;;;5.40;99.90;;;;;;12568092;28;20102;-35
2024/02/07 14:53:02;;;;;;;30.05;28.38;;;5.40;99.90;;;;;;12565888;28;20053;-35
2024/02/07 14:59:14;;;;;;;40.03;37.25;;;5.60;99.90;;;;;;12586164;28;20409;-35
2024/02/07 15:05:26;;;;;;;34.92;32.60;;;5.50;99.90;;;;;;12579182;28;20080;-35
2024/02/07 15:11:40;;;;;;;34.97;31.83;;;5.20;99.90;;;;;;12586218;28;20080;-35
2024/02/07 15:17:52;;;;;;;34.40;31.80;;;5.30;99.90;;;;;;12590596;28;20061;-35
2024/02/07 15:24:04;;;;;;;37.08;34.15;;;5.10;99.90;;;;;;12584762;28;20436;-34
2024/02/07 15:30:17;;;;;;;37.38;34.90;;;5.00;99.90;;;;;;12581021;28;20540;-35
2024/02/07 15:36:29;;;;;;;36.67;34.47;;;5.10;99.90;;;;;;12584163;28;20045;-35
2024/02/07 15:42:42;;;;;;;37.35;34.88;;;4.80;99.90;;;;;;12573811;28;20135;-35
2024/02/07 15:48:54;;;;;;;36.05;33.88;;;4.60;99.90;;;;;;12574497;28;20409;-34
2024/02/07 15:55:15;;;;;;;38.67;36.40;;;4.60;99.90;;;;;;12585765;28;20386;-35
2024/02/07 16:01:27;;;;;;;38.83;36.25;;;4.50;99.90;;;;;;12591485;28;20554;-34
2024/02/07 16:07:55;;;;;;;58.78;54.97;;;4.40;99.90;;;;;;12574487;28;20053;-35
2024/02/07 16:14:09;;;;;;;69.82;65.20;;;4.30;99.90;;;;;;12576818;28;20056;-35
2024/02/07 16:20:21;;;;;;;69.38;64.72;;;4.20;99.90;;;;;;12569497;28;20467;-35
2024/02/07 16:26:35;;;;;;;76.05;70.93;;;4.00;99.90;;;;;;12583378;28;20048;-35
2024/02/07 16:32:47;;;;;;;83.22;77.55;;;3.90;99.90;;;;;;12586027;28;20535;-35
2024/02/07 16:38:59;;;;;;;84.55;79.15;;;3.90;99.90;;;;;;12585493;28;20129;-35
2024/02/07 16:45:12;;;;;;;92.60;86.25;;;3.80;99.90;;;;;;12586162;28;20048;-35
2024/02/07 16:51:24;;;;;;;92.93;86.70;;;3.70;99.90;;;;;;12575596;28;20056;-34
2024/02/07 16:57:38;;;;;;;93.55;87.60;;;3.70;99.90;;;;;;12583443;28;20060;-35
2024/02/07 17:03:54;;;;;;;93.78;87.88;;;3.60;99.90;;;;;;12574028;28;20052;-35
2024/02/07 17:10:06;;;;;;;99.03;92.43;;;3.60;99.90;;;;;;12581107;28;20067;-34
2024/02/07 17:16:18;;;;;;;100.90;94.20;;;3.60;99.90;;;;;;12579966;28;20060;-35
2024/02/07 17:22:32;;;;;;;103.13;96.05;;;3.50;99.90;;;;;;12583202;28;20071;-35
2024/02/07 17:28:47;;;;;;;111.55;103.72;;;3.50;99.90;;;;;;12579681;28;20089;-35
2024/02/07 17:34:59;;;;;;;108.80;100.63;;;3.40;99.90;;;;;;12578741;28;20052;-35
2024/02/07 17:41:15;;;;;;;108.68;101.07;;;3.30;99.90;;;;;;12591869;28;20060;-35
2024/02/07 17:47:27;;;;;;;111.90;104.38;;;3.30;99.90;;;;;;12587004;28;20551;-34
2024/02/07 17:53:39;;;;;;;116.00;108.20;;;3.30;99.90;;;;;;12582745;28;20063;-35
2024/02/07 17:59:51;;;;;;;109.85;101.88;;;3.30;99.90;;;;;;12595205;28;20097;-35
2024/02/07 18:06:02;;;;;;;111.18;103.18;;;3.20;99.90;;;;;;12585135;28;20619;-35
2024/02/07 18:12:15;;;;;;;107.18;100.07;;;3.10;99.90;;;;;;12577079;28;20417;-35
2024/02/07 18:18:27;;;;;;;111.85;104.50;;;3.10;99.90;;;;;;12590051;28;20084;-35
2024/02/07 18:24:40;;;;;;;113.68;106.20;;;3.10;99.90;;;;;;12579520;28;20511;-35
2024/02/07 18:30:53;;;;;;;110.75;103.55;;;3.10;99.90;;;;;;12575027;28;20056;-35
2024/02/07 18:37:07;;;;;;;109.82;102.72;;;3.10;99.90;;;;;;12579353;28;20425;-35
2024/02/07 18:43:19;;;;;;;111.65;104.57;;;3.00;99.90;;;;;;12573461;28;20056;-35
2024/02/07 18:49:32;;;;;;;113.60;105.88;;;3.10;99.90;;;;;;12578325;28;20056;-35
2024/02/07 18:55:44;;;;;;;121.03;112.65;;;3.00;99.90;;;;;;12574561;28;20693;-35
2024/02/07 19:01:57;;;;;;;115.68;108.00;;;3.00;99.90;;;;;;12575646;28;20486;-35
2024/02/07 19:08:13;;;;;;;117.97;109.63;;;3.00;99.90;;;;;;12382808;28;5751644;-35
2024/02/07 19:14:26;;;;;;;122.03;113.57;;;2.90;99.90;;;;;;12583294;28;20045;-35
2024/02/07 19:20:38;;;;;;;121.55;112.85;;;2.80;99.90;;;;;;12589298;28;20059;-35
2024/02/07 19:26:50;;;;;;;119.00;110.88;;;2.80;99.90;;;;;;12587166;28;20067;-35
2024/02/07 19:33:02;;;;;;;120.22;112.07;;;2.70;99.90;;;;;;12575356;28;20548;-35
2024/02/07 19:39:16;;;;;;;122.13;113.72;;;2.70;99.90;;;;;;12589195;28;20052;-35
2024/02/07 19:45:28;;;;;;;126.70;118.07;;;2.70;99.90;;;;;;12573828;28;20089;-35
2024/02/07 19:51:40;;;;;;;132.15;122.70;;;2.60;99.90;;;;;;12584021;28;20401;-35
2024/02/07 19:57:52;;;;;;;136.98;127.47;;;2.60;99.90;;;;;;12588459;28;20082;-35
2024/02/07 20:04:04;;;;;;;148.02;137.82;;;2.60;99.90;;;;;;12578356;28;20057;-35
2024/02/07 20:10:17;;;;;;;144.85;134.77;;;2.70;99.90;;;;;;12567212;28;20082;-35
2024/02/07 20:16:30;;;;;;;148.07;137.65;;;2.60;99.90;;;;;;12579969;28;20470;-35
2024/02/07 20:22:42;;;;;;;150.82;140.02;;;2.70;99.90;;;;;;12573443;28;20048;-35
2024/02/07 20:28:55;;;;;;;163.30;151.43;;;2.60;99.90;;;;;;12587056;28;20048;-34
2024/02/07 20:35:07;;;;;;;163.63;151.45;;;2.60;99.90;;;;;;12577309;28;20106;-34
2024/02/07 20:41:20;;;;;;;165.10;152.38;;;2.60;99.90;;;;;;12585704;28;20087;-36
2024/02/07 20:47:38;;;;;;;163.48;151.80;;;2.60;99.90;;;;;;12576092;28;20052;-34
2024/02/07 20:53:53;;;;;;;161.23;149.13;;;2.60;99.90;;;;;;12576933;28;20155;-35
2024/02/07 21:00:09;;;;;;;156.85;145.32;;;2.60;99.90;;;;;;12585805;28;20428;-36
2024/02/07 21:06:20;;;;;;;159.95;147.85;;;2.50;99.90;;;;;;12582783;28;20048;-34
2024/02/07 21:12:33;;;;;;;161.27;149.18;;;2.50;99.90;;;;;;12577809;28;20087;-35
2024/02/07 21:18:45;;;;;;;162.10;150.60;;;2.40;99.90;;;;;;12567295;28;20459;-35
2024/02/07 21:24:57;;;;;;;167.85;155.32;;;2.40;99.90;;;;;;12587245;28;20139;-35
2024/02/07 21:31:09;;;;;;;169.15;156.73;;;2.30;99.90;;;;;;12581573;28;20513;-35
2024/02/07 21:37:21;;;;;;;168.30;156.43;;;2.30;99.90;;;;;;12585357;28;20078;-35
2024/02/07 21:43:33;;;;;;;182.98;169.95;;;2.30;99.90;;;;;;12580666;28;20087;-35
2024/02/07 21:49:45;;;;;;;171.65;159.15;;;2.20;99.90;;;;;;12583681;28;20049;-35
2024/02/07 21:55:57;;;;;;;176.68;164.00;;;2.10;99.90;;;;;;12586154;28;20063;-35
2024/02/07 22:02:09;;;;;;;169.00;156.60;;;1.90;99.90;;;;;;12588459;28;20113;-35
2024/02/07 22:08:21;;;;;;;165.15;153.15;;;1.90;99.90;;;;;;12581941;28;20048;-35
2024/02/07 22:14:33;;;;;;;169.43;156.60;;;1.80;99.90;;;;;;12578088;28;20048;-35
2024/02/07 22:20:45;;;;;;;174.55;161.73;;;1.70;99.90;;;;;;12583477;28;20048;-34
2024/02/07 22:26:57;;;;;;;169.93;158.05;;;1.70;99.90;;;;;;12581984;28;20135;-34
2024/02/07 22:33:09;;;;;;;171.25;158.45;;;1.60;99.90;;;;;;12581304;28;20045;-35
2024/02/07 22:39:22;;;;;;;178.25;165.55;;;1.50;99.90;;;;;;12592635;28;20052;-35
2024/02/07 22:45:33;;;;;;;172.73;160.52;;;1.60;99.90;;;;;;12586232;28;20074;-34
2024/02/07 22:51:45;;;;;;;169.48;157.48;;;1.50;99.90;;;;;;12583974;28;20106;-35
2024/02/07 22:57:59;;;;;;;170.13;157.30;;;1.40;99.90;;;;;;12585086;28;20061;-35
2024/02/07 23:04:11;;;;;;;173.95;161.52;;;1.40;99.90;;;;;;12571044;28;20402;-35
2024/02/07 23:10:23;;;;;;;170.18;157.38;;;1.40;99.90;;;;;;12585138;28;20635;-35
2024/02/07 23:16:35;;;;;;;171.93;159.40;;;1.20;99.90;;;;;;12572216;28;20493;-35
2024/02/07 23:22:48;;;;;;;172.07;159.70;;;1.20;99.90;;;;;;12590724;28;20064;-35
2024/02/07 23:29:02;;;;;;;175.85;163.40;;;1.20;99.90;;;;;;12582535;28;20076;-35
2024/02/07 23:35:16;;;;;;;170.88;158.82;;;1.10;99.90;;;;;;12593464;28;20085;-35
2024/02/07 23:41:28;;;;;;;166.80;155.00;;;1.20;99.90;;;;;;12578269;28;20048;-35
2024/02/07 23:47:40;;;;;;;170.90;158.63;;;1.30;99.90;;;;;;12573503;28;20056;-36
2024/02/07 23:53:52;;;;;;;170.75;158.80;;;1.20;99.90;;;;;;12588210;28;20549;-36
